createdAt,value
2019-04-07T00:00:41.491Z,100279.90
2019-04-07T00:03:11.976Z,100282.70
2019-04-07T00:05:42.600Z,100278.53
2019-04-07T00:08:13.431Z,100275.05
2019-04-07T00:10:44.672Z,100278.23
2019-04-07T00:13:16.104Z,100274.75
2019-04-07T00:15:46.608Z,100277.50
2019-04-07T00:18:17.078Z,100282.39
2019-04-07T00:20:47.535Z,100280.34
2019-04-07T00:23:18.038Z,100272.18
2019-04-07T00:25:48.536Z,100278.73
2019-04-07T00:28:19.626Z,100274.80
2019-04-07T00:30:50.282Z,100269.59
2019-04-07T00:33:20.791Z,100268.55
2019-04-07T00:35:51.276Z,100268.19
2019-04-07T00:38:21.730Z,100270.48
2019-04-07T00:40:52.509Z,100265.44
2019-04-07T00:43:23.007Z,100260.92
2019-04-07T00:45:53.483Z,100264.15
2019-04-07T00:48:24.411Z,100260.92
2019-04-07T00:50:54.939Z,100261.27
2019-04-07T00:53:25.492Z,100263.21
2019-04-07T00:55:56.246Z,100264.02
2019-04-07T00:58:26.920Z,100264.59
2019-04-07T01:00:57.408Z,100265.78
2019-04-07T01:03:27.911Z,100267.63
2019-04-07T01:05:58.730Z,100265.18
2019-04-07T01:08:29.395Z,100276.71
2019-04-07T01:10:59.920Z,100272.20
2019-04-07T01:13:30.772Z,100279.72
2019-04-07T01:16:01.383Z,100279.00
2019-04-07T01:18:35.493Z,100281.31
2019-04-07T01:21:05.995Z,100280.69
2019-04-07T01:23:36.485Z,100279.67
2019-04-07T01:26:07.434Z,100280.05
2019-04-07T01:28:37.993Z,100280.67
2019-04-07T01:31:08.805Z,100278.19
2019-04-07T01:33:40.040Z,100280.22
2019-04-07T01:36:11.223Z,100284.31
2019-04-07T01:38:42.215Z,100281.11
2019-04-07T01:41:47.244Z,100281.44
2019-04-07T01:44:23.543Z,100280.98
2019-04-07T01:47:11.635Z,100279.45
2019-04-07T01:50:07.733Z,100282.05
2019-04-07T01:52:51.901Z,100277.37
2019-04-07T01:55:40.062Z,100280.54
2019-04-07T01:58:35.589Z,100275.81
2019-04-07T02:01:15.738Z,100279.19
2019-04-07T02:04:08.151Z,100273.17
2019-04-07T02:07:16.173Z,100280.23
2019-04-07T02:10:08.702Z,100275.70
2019-04-07T02:12:56.661Z,100283.96
2019-04-07T02:15:44.738Z,100278.70
2019-04-07T02:18:40.223Z,100283.96
2019-04-07T02:21:15.743Z,100278.87
2019-04-07T02:24:05.239Z,100281.86
2019-04-07T02:26:54.646Z,100280.87
2019-04-07T02:29:54.080Z,100282.59
2019-04-07T02:32:42.175Z,100281.05
2019-04-07T02:35:40.005Z,100279.86
2019-04-07T02:38:25.724Z,100282.14
2019-04-07T02:41:06.093Z,100275.34
2019-04-07T02:44:11.170Z,100280.02
2019-04-07T02:46:59.248Z,100283.39
2019-04-07T02:49:48.606Z,100282.66
2019-04-07T02:52:37.065Z,100281.84
2019-04-07T02:55:45.548Z,100281.50
2019-04-07T02:58:47.785Z,100283.55
2019-04-07T03:01:49.721Z,100284.52
2019-04-07T03:04:38.447Z,100286.53
2019-04-07T03:07:29.087Z,100283.94
2019-04-07T03:10:18.767Z,100284.63
2019-04-07T03:13:24.460Z,100287.76
2019-04-07T03:16:07.689Z,100284.63
2019-04-07T03:18:50.688Z,100284.16
2019-04-07T03:21:31.500Z,100281.42
2019-04-07T03:24:19.893Z,100284.05
2019-04-07T03:27:10.040Z,100283.00
2019-04-07T03:29:56.817Z,100279.41
2019-04-07T03:32:48.420Z,100276.78
2019-04-07T03:35:26.583Z,100280.61
2019-04-07T03:38:05.518Z,100281.69
2019-04-07T03:40:46.456Z,100282.30
2019-04-07T03:43:27.078Z,100282.05
2019-04-07T03:46:06.054Z,100283.95
2019-04-07T03:48:44.495Z,100288.37
2019-04-07T03:51:33.163Z,100283.95
2019-04-07T03:54:21.438Z,100282.42
2019-04-07T03:57:11.364Z,100288.98
2019-04-07T04:00:16.837Z,100283.95
2019-04-07T04:03:12.908Z,100285.14
2019-04-07T04:06:02.700Z,100285.41
2019-04-07T04:08:46.267Z,100276.32
2019-04-07T04:11:22.152Z,100286.93
2019-04-07T04:14:09.945Z,100285.38
2019-04-07T04:16:46.538Z,100288.27
2019-04-07T04:19:17.142Z,100289.44
2019-04-07T04:21:47.970Z,100288.48
2019-04-07T04:24:18.831Z,100292.31
2019-04-07T04:26:51.782Z,100290.53
2019-04-07T04:29:23.363Z,100290.16
2019-04-07T04:31:55.695Z,100289.92
2019-04-07T04:34:27.137Z,100296.48
2019-04-07T04:36:57.761Z,100296.44
2019-04-07T04:39:29.336Z,100297.05
2019-04-07T04:42:00.071Z,100291.68
2019-04-07T04:44:31.636Z,100292.16
2019-04-07T04:47:02.804Z,100296.83
2019-04-07T04:49:33.348Z,100305.30
2019-04-07T04:52:03.826Z,100301.95
2019-04-07T04:54:35.260Z,100305.66
2019-04-07T04:57:08.022Z,100299.33
2019-04-07T04:59:38.160Z,100300.40
2019-04-07T05:02:08.987Z,100300.51
2019-04-07T05:04:39.846Z,100303.97
2019-04-07T05:07:11.216Z,100304.45
2019-04-07T05:09:48.326Z,100305.42
2019-04-07T05:12:14.226Z,100318.64
2019-04-07T05:14:45.495Z,100313.65
2019-04-07T05:17:16.421Z,100316.52
2019-04-07T05:19:47.031Z,100319.00
2019-04-07T05:22:17.925Z,100320.93
2019-04-07T05:24:48.842Z,100325.59
2019-04-07T05:27:19.481Z,100326.56
2019-04-07T05:29:49.965Z,100327.74
2019-04-07T05:32:21.185Z,100328.34
2019-04-07T05:34:52.098Z,100329.53
2019-04-07T05:37:23.035Z,100331.44
2019-04-07T05:39:53.767Z,100341.84
2019-04-07T05:42:24.660Z,100340.39
2019-04-07T05:44:55.221Z,100344.57
2019-04-07T05:47:25.987Z,100347.81
2019-04-07T05:49:58.825Z,100350.44
2019-04-07T05:52:29.417Z,100352.83
2019-04-07T05:54:59.947Z,100351.12
2019-04-07T05:57:33.238Z,100356.87
2019-04-07T06:00:04.241Z,100354.02
2019-04-07T06:02:35.345Z,100355.81
2019-04-07T06:05:06.903Z,100364.16
2019-04-07T06:07:37.814Z,100361.28
2019-04-07T06:10:09.072Z,100368.20
2019-04-07T06:12:43.287Z,100368.09
2019-04-07T06:15:12.877Z,100370.56
2019-04-07T06:17:43.612Z,100378.33
2019-04-07T06:20:15.897Z,100376.05
2019-04-07T06:22:47.477Z,100377.84
2019-04-07T06:25:18.770Z,100377.21
2019-04-07T06:27:50.062Z,100377.09
2019-04-07T06:30:22.025Z,100378.48
2019-04-07T06:32:52.847Z,100382.66
2019-04-07T06:35:23.478Z,100384.08
2019-04-07T06:37:55.816Z,100376.19
2019-04-07T06:40:26.275Z,100385.00
2019-04-07T06:42:56.820Z,100388.19
2019-04-07T06:45:33.296Z,100393.55
2019-04-07T06:48:07.445Z,100385.73
2019-04-07T06:50:58.380Z,100389.95
2019-04-07T06:53:46.809Z,100390.23
2019-04-07T06:56:38.672Z,100399.41
2019-04-07T06:59:18.881Z,100392.67
2019-04-07T07:02:07.342Z,100399.36
2019-04-07T07:05:11.312Z,100395.10
2019-04-07T07:08:10.124Z,100393.73
2019-04-07T07:11:09.747Z,100394.34
2019-04-07T07:14:30.037Z,100394.53
2019-04-07T07:17:02.997Z,100402.37
2019-04-07T07:19:45.848Z,100403.59
2019-04-07T07:22:18.753Z,100395.41
2019-04-07T07:24:49.258Z,100393.37
2019-04-07T07:27:19.759Z,100398.95
2019-04-07T07:29:52.819Z,100399.30
2019-04-07T07:32:22.738Z,100403.41
2019-04-07T07:34:54.100Z,100403.84
2019-04-07T07:37:25.374Z,100402.75
2019-04-07T07:39:56.962Z,100404.84
2019-04-07T07:42:27.789Z,100400.62
2019-04-07T07:44:58.387Z,100397.69
2019-04-07T07:47:29.653Z,100400.19
2019-04-07T07:50:00.321Z,100403.19
2019-04-07T07:52:30.918Z,100405.45
2019-04-07T07:55:04.459Z,100408.77
2019-04-07T07:57:35.557Z,100403.70
2019-04-07T08:00:07.209Z,100403.13
2019-04-07T08:02:38.052Z,100411.20
2019-04-07T08:05:10.385Z,100404.02
2019-04-07T08:07:43.710Z,100407.71
2019-04-07T08:10:13.404Z,100406.80
2019-04-07T08:12:44.012Z,100406.86
2019-04-07T08:15:14.900Z,100409.12
2019-04-07T08:17:46.289Z,100410.50
2019-04-07T08:20:17.470Z,100412.82
2019-04-07T08:22:48.255Z,100415.59
2019-04-07T08:25:22.302Z,100420.40
2019-04-07T08:27:51.146Z,100414.42
2019-04-07T08:30:21.679Z,100414.73
2019-04-07T08:32:53.239Z,100422.59
2019-04-07T08:35:24.331Z,100418.48
2019-04-07T08:37:55.589Z,100423.53
2019-04-07T08:40:26.494Z,100425.91
2019-04-07T08:42:57.295Z,100429.27
2019-04-07T08:45:30.889Z,100431.21
2019-04-07T08:48:00.782Z,100436.73
2019-04-07T08:50:33.138Z,100432.82
2019-04-07T08:53:04.349Z,100433.19
2019-04-07T08:55:35.571Z,100430.50
2019-04-07T08:58:06.686Z,100433.44
2019-04-07T09:00:41.668Z,100432.83
2019-04-07T09:03:15.691Z,100430.48
2019-04-07T09:05:44.567Z,100426.15
2019-04-07T09:08:16.007Z,100435.31
2019-04-07T09:10:56.593Z,100435.64
2019-04-07T09:13:27.692Z,100437.50
2019-04-07T09:16:17.357Z,100435.02
2019-04-07T09:19:08.210Z,100432.36
2019-04-07T09:21:55.889Z,100432.17
2019-04-07T09:24:53.240Z,100422.14
2019-04-07T09:27:43.153Z,100427.43
2019-04-07T09:30:22.293Z,100425.95
2019-04-07T09:33:18.105Z,100433.07
2019-04-07T09:36:07.998Z,100434.42
2019-04-07T09:39:01.430Z,100442.15
2019-04-07T09:41:42.662Z,100435.32
2019-04-07T09:44:34.010Z,100435.33
2019-04-07T09:47:11.227Z,100437.16
2019-04-07T09:49:56.160Z,100439.45
2019-04-07T09:52:37.065Z,100435.94
2019-04-07T09:55:27.631Z,100426.46
2019-04-07T09:58:10.831Z,100430.37
2019-04-07T10:01:02.925Z,100436.34
2019-04-07T10:03:41.117Z,100429.36
2019-04-07T10:06:42.897Z,100432.83
2019-04-07T10:09:43.625Z,100428.41
2019-04-07T10:12:20.835Z,100427.38
2019-04-07T10:15:25.643Z,100425.67
2019-04-07T10:18:34.134Z,100426.20
2019-04-07T10:21:15.646Z,100429.70
2019-04-07T10:24:08.144Z,100424.48
2019-04-07T10:27:12.855Z,100423.25
2019-04-07T10:29:52.431Z,100421.80
2019-04-07T10:32:40.657Z,100426.25
2019-04-07T10:35:29.560Z,100416.88
2019-04-07T10:38:21.998Z,100425.70
2019-04-07T10:40:59.469Z,100425.12
2019-04-07T10:43:52.603Z,100421.23
2019-04-07T10:46:40.292Z,100418.73
2019-04-07T10:49:33.016Z,100419.06
2019-04-07T10:52:24.442Z,100419.14
2019-04-07T10:55:02.885Z,100419.05
2019-04-07T10:57:49.391Z,100418.91
2019-04-07T11:00:46.367Z,100422.69
2019-04-07T11:03:34.080Z,100415.22
2019-04-07T11:06:13.827Z,100420.88
2019-04-07T11:09:03.651Z,100410.92
2019-04-07T11:11:59.978Z,100401.39
2019-04-07T11:14:39.571Z,100405.92
2019-04-07T11:17:29.222Z,100403.30
2019-04-07T11:20:25.803Z,100399.97
2019-04-07T11:23:21.742Z,100401.20
2019-04-07T11:26:10.047Z,100391.30
2019-04-07T11:28:45.480Z,100398.69
2019-04-07T11:31:23.920Z,100405.44
2019-04-07T11:34:12.930Z,100407.10
2019-04-07T11:37:01.754Z,100404.06
2019-04-07T11:40:12.812Z,100406.91
2019-04-07T11:43:05.438Z,100399.30
2019-04-07T11:46:04.622Z,100398.06
2019-04-07T11:48:49.206Z,100392.75
2019-04-07T11:51:47.869Z,100388.00
2019-04-07T11:54:52.244Z,100398.91
2019-04-07T11:58:00.662Z,100397.19
2019-04-07T12:00:40.527Z,100396.81
2019-04-07T12:03:33.021Z,100394.59
2019-04-07T12:06:25.194Z,100396.16
2019-04-07T12:09:12.051Z,100398.14
2019-04-07T12:12:01.500Z,100401.27
2019-04-07T12:14:52.091Z,100395.91
2019-04-07T12:17:43.681Z,100389.06
2019-04-07T12:20:36.177Z,100393.31
2019-04-07T12:23:16.975Z,100397.36
2019-04-07T12:26:14.123Z,100392.92
2019-04-07T12:29:02.642Z,100398.45
2019-04-07T12:31:59.729Z,100394.55
2019-04-07T12:34:50.185Z,100394.27
2019-04-07T12:37:43.772Z,100395.59
2019-04-07T12:40:46.236Z,100387.78
2019-04-07T12:43:36.423Z,100394.42
2019-04-07T12:46:16.549Z,100399.30
2019-04-07T12:48:54.342Z,100401.81
2019-04-07T12:51:41.509Z,100397.39
2019-04-07T12:54:29.699Z,100398.45
2019-04-07T12:57:37.772Z,100394.19
2019-04-07T13:00:24.181Z,100396.66
2019-04-07T13:03:02.823Z,100394.61
2019-04-07T13:05:49.937Z,100396.14
2019-04-07T13:08:49.077Z,100404.84
2019-04-07T13:11:36.248Z,100396.49
2019-04-07T13:14:23.378Z,100399.61
2019-04-07T13:17:12.690Z,100401.15
2019-04-07T13:20:08.384Z,100401.86
2019-04-07T13:22:58.759Z,100399.21
2019-04-07T13:25:54.313Z,100390.81
2019-04-07T13:28:30.622Z,100397.05
2019-04-07T13:31:20.134Z,100400.43
2019-04-07T13:34:12.834Z,100401.35
2019-04-07T13:37:20.396Z,100401.34
2019-04-07T13:39:59.684Z,100392.46
2019-04-07T13:42:49.130Z,100391.84
2019-04-07T13:45:26.277Z,100390.20
2019-04-07T13:48:06.192Z,100383.19
2019-04-07T13:50:56.495Z,100386.83
2019-04-07T13:54:02.087Z,100383.73
2019-04-07T13:56:52.252Z,100390.30
2019-04-07T13:59:42.946Z,100390.36
2019-04-07T14:02:50.045Z,100386.17
2019-04-07T14:05:40.093Z,100389.06
2019-04-07T14:08:18.613Z,100376.64
2019-04-07T14:11:10.148Z,100381.16
2019-04-07T14:13:59.169Z,100374.88
2019-04-07T14:16:47.515Z,100378.88
2019-04-07T14:19:43.402Z,100373.77
2019-04-07T14:22:36.389Z,100378.79
2019-04-07T14:25:25.657Z,100380.02
2019-04-07T14:28:09.978Z,100375.44
2019-04-07T14:30:59.841Z,100375.87
2019-04-07T14:34:04.465Z,100374.06
2019-04-07T14:36:54.609Z,100368.55
2019-04-07T14:39:36.909Z,100371.05
2019-04-07T14:42:29.456Z,100372.05
2019-04-07T14:45:13.525Z,100375.34
2019-04-07T14:48:06.116Z,100373.27
2019-04-07T14:50:45.386Z,100369.91
2019-04-07T14:53:41.002Z,100369.94
2019-04-07T14:56:34.140Z,100376.49
2019-04-07T14:59:40.533Z,100372.81
2019-04-07T15:02:12.721Z,100373.99
2019-04-07T15:05:03.003Z,100376.05
2019-04-07T15:07:52.766Z,100364.34
2019-04-07T15:10:28.141Z,100374.91
2019-04-07T15:13:04.160Z,100368.79
2019-04-07T15:15:34.660Z,100375.34
2019-04-07T15:18:05.165Z,100374.67
2019-04-07T15:20:35.652Z,100372.87
2019-04-07T15:25:44.166Z,100372.37
2019-04-07T15:28:14.219Z,100372.05
2019-04-07T15:30:47.895Z,100368.75
2019-04-07T15:33:17.782Z,100370.77
2019-04-07T15:35:49.410Z,100363.50
2019-04-07T15:38:24.826Z,100367.77
2019-04-07T15:40:52.997Z,100364.06
2019-04-07T15:43:24.270Z,100373.47
2019-04-07T15:45:55.741Z,100369.00
2019-04-07T15:48:27.119Z,100370.88
2019-04-07T15:51:00.852Z,100373.02
2019-04-07T15:53:30.841Z,100370.03
2019-04-07T15:56:06.022Z,100366.08
2019-04-07T15:58:33.908Z,100368.34
2019-04-07T16:01:07.353Z,100368.12
2019-04-07T16:03:36.824Z,100378.81
2019-04-07T16:06:07.857Z,100373.54
2019-04-07T16:08:39.474Z,100370.73
2019-04-07T16:11:10.487Z,100376.28
2019-04-07T16:13:41.088Z,100378.59
2019-04-07T16:16:11.631Z,100374.06
2019-04-07T16:18:43.459Z,100381.66
2019-04-07T16:21:15.283Z,100383.23
2019-04-07T16:23:50.226Z,100380.38
2019-04-07T16:26:18.118Z,100375.09
2019-04-07T16:28:48.663Z,100384.31
2019-04-07T16:31:19.810Z,100381.30
2019-04-07T16:33:51.866Z,100381.50
2019-04-07T16:36:24.759Z,100379.86
2019-04-07T16:38:55.060Z,100386.25
2019-04-07T16:41:25.933Z,100381.64
2019-04-07T16:43:56.381Z,100382.39
2019-04-07T16:46:26.921Z,100385.30
2019-04-07T16:48:58.475Z,100384.53
2019-04-07T16:51:31.641Z,100381.84
2019-04-07T16:54:02.719Z,100378.98
2019-04-07T16:56:33.342Z,100379.30
2019-04-07T16:59:04.222Z,100382.67
2019-04-07T17:01:34.902Z,100383.41
2019-04-07T17:04:06.310Z,100387.53
2019-04-07T17:06:37.885Z,100382.23
2019-04-07T17:09:17.995Z,100384.45
2019-04-07T17:11:49.340Z,100388.42
2019-04-07T17:14:20.000Z,100384.60
2019-04-07T17:16:50.687Z,100387.59
2019-04-07T17:19:21.464Z,100392.77
2019-04-07T17:21:53.304Z,100396.09
2019-04-07T17:24:27.150Z,100390.48
2019-04-07T17:26:56.375Z,100395.42
2019-04-07T17:29:28.559Z,100397.57
2019-04-07T17:32:01.698Z,100400.66
2019-04-07T17:34:32.555Z,100396.58
2019-04-07T17:37:04.104Z,100404.86
2019-04-07T17:39:40.599Z,100405.67
2019-04-07T17:42:15.630Z,100406.52
2019-04-07T17:45:04.174Z,100403.23
2019-04-07T17:48:05.500Z,100404.08
2019-04-07T17:51:01.060Z,100411.17
2019-04-07T17:53:38.172Z,100408.55
2019-04-07T17:56:29.844Z,100404.00
2019-04-07T17:59:08.750Z,100407.74
2019-04-07T18:01:53.466Z,100410.44
2019-04-07T18:04:55.085Z,100404.92
2019-04-07T18:07:56.855Z,100405.50
2019-04-07T18:11:02.245Z,100415.49
2019-04-07T18:13:49.312Z,100419.18
2019-04-07T18:16:32.557Z,100418.87
2019-04-07T18:19:28.414Z,100418.67
2019-04-07T18:22:21.424Z,100422.83
2019-04-07T18:25:10.551Z,100428.77
2019-04-07T18:27:48.181Z,100436.69
2019-04-07T18:30:37.134Z,100437.50
2019-04-07T18:33:25.587Z,100440.63
2019-04-07T18:36:08.011Z,100448.89
2019-04-07T18:38:58.299Z,100451.17
2019-04-07T18:41:44.778Z,100453.20
2019-04-07T18:44:38.606Z,100459.16
2019-04-07T18:47:15.246Z,100462.23
2019-04-07T18:50:06.325Z,100472.28
2019-04-07T18:52:44.546Z,100463.45
2019-04-07T18:55:37.163Z,100471.20
2019-04-07T18:58:18.351Z,100468.45
2019-04-07T19:01:08.757Z,100478.22
2019-04-07T19:03:53.711Z,100479.00
2019-04-07T19:06:50.557Z,100482.64
2019-04-07T19:09:41.111Z,100485.23
2019-04-07T19:12:30.689Z,100487.55
2019-04-07T19:15:10.600Z,100490.16
2019-04-07T19:17:54.652Z,100479.45
2019-04-07T19:20:44.390Z,100486.41
2019-04-07T19:23:28.558Z,100487.23
2019-04-07T19:26:09.686Z,100486.28
2019-04-07T19:28:58.147Z,100488.24
2019-04-07T19:31:48.074Z,100486.02
2019-04-07T19:34:53.000Z,100489.56
2019-04-07T19:37:50.685Z,100485.83
2019-04-07T19:40:31.945Z,100485.33
2019-04-07T19:43:12.541Z,100492.21
2019-04-07T19:45:59.491Z,100495.60
2019-04-07T19:48:52.360Z,100498.01
2019-04-07T19:51:47.311Z,100496.47
2019-04-07T19:54:31.468Z,100504.70
2019-04-07T19:57:22.181Z,100500.25
2019-04-07T20:00:02.675Z,100504.30
2019-04-07T20:03:04.234Z,100506.02
2019-04-07T20:05:44.276Z,100504.50
2019-04-07T20:08:32.466Z,100503.26
2019-04-07T20:11:21.116Z,100502.90
2019-04-07T20:14:19.770Z,100500.49
2019-04-07T20:17:09.337Z,100505.64
2019-04-07T20:19:57.876Z,100508.55
2019-04-07T20:22:50.211Z,100506.09
2019-04-07T20:25:29.584Z,100507.09
2019-04-07T20:28:09.133Z,100505.64
2019-04-07T20:30:57.186Z,100504.33
2019-04-07T20:33:56.851Z,100515.22
2019-04-07T20:37:01.859Z,100516.33
2019-04-07T20:39:43.402Z,100511.31
2019-04-07T20:42:39.826Z,100512.33
2019-04-07T20:45:35.434Z,100514.13
2019-04-07T20:48:21.413Z,100516.52
2019-04-07T20:51:02.563Z,100511.98
2019-04-07T20:53:47.652Z,100509.64
2019-04-07T20:56:31.906Z,100511.16
2019-04-07T20:59:26.861Z,100509.50
2019-04-07T21:02:33.602Z,100512.63
2019-04-07T21:05:23.001Z,100508.44
2019-04-07T21:08:15.029Z,100509.00
2019-04-07T21:11:08.080Z,100505.66
2019-04-07T21:13:49.201Z,100510.27
2019-04-07T21:16:57.915Z,100509.55
2019-04-07T21:19:37.472Z,100510.72
2019-04-07T21:22:22.804Z,100514.95
